createdAt,value
2022-11-04T00:01:54.236Z,2.20
2022-11-04T00:04:25.916Z,1.67
2022-11-04T00:06:54.608Z,2.55
2022-11-04T00:09:24.365Z,2.65
2022-11-04T00:12:11.190Z,2.30
2022-11-04T00:14:39.665Z,2.15
2022-11-04T00:17:24.459Z,2.10
2022-11-04T00:20:14.756Z,2.10
2022-11-04T00:23:01.830Z,2.05
2022-11-04T00:28:36.939Z,2.10
2022-11-04T00:31:27.353Z,2.00
2022-11-04T00:33:58.184Z,2.10
2022-11-04T00:36:28.158Z,2.47
2022-11-04T00:38:56.587Z,2.40
2022-11-04T00:41:28.223Z,2.13
2022-11-04T00:43:58.580Z,2.55
2022-11-04T00:46:28.321Z,1.90
2022-11-04T00:48:57.125Z,2.15
2022-11-04T00:51:27.344Z,2.55
2022-11-04T00:53:56.375Z,2.25
2022-11-04T00:56:24.816Z,1.85
2022-11-04T00:58:53.249Z,2.17
2022-11-04T01:01:22.022Z,1.80
2022-11-04T01:03:52.285Z,1.83
2022-11-04T01:06:22.233Z,1.95
2022-11-04T01:08:56.489Z,1.80
2022-11-04T01:11:24.871Z,1.67
2022-11-04T01:13:53.216Z,2.40
2022-11-04T01:16:21.744Z,2.10
2022-11-04T01:18:50.007Z,2.45
2022-11-04T01:21:18.884Z,1.70
2022-11-04T01:23:47.469Z,1.77
2022-11-04T01:26:19.484Z,2.40
2022-11-04T01:28:48.279Z,1.60
2022-11-04T01:31:18.645Z,1.70
2022-11-04T01:33:47.070Z,2.10
2022-11-04T01:36:15.839Z,2.60
2022-11-04T01:38:44.508Z,1.77
2022-11-04T01:41:21.003Z,2.08
2022-11-04T01:46:27.247Z,2.33
2022-11-04T01:49:00.074Z,1.48
2022-11-04T01:51:31.809Z,1.90
2022-11-04T01:54:01.384Z,2.15
2022-11-04T01:56:32.180Z,1.80
2022-11-04T01:59:07.735Z,1.75
2022-11-04T02:01:37.010Z,1.88
2022-11-04T02:04:24.590Z,1.75
2022-11-04T02:06:56.010Z,1.95
2022-11-04T02:09:25.706Z,1.90
2022-11-04T02:12:13.994Z,1.60
2022-11-04T02:14:43.279Z,2.00
2022-11-04T02:17:29.436Z,2.15
2022-11-04T02:20:10.471Z,1.80
2022-11-04T02:23:16.520Z,1.80
2022-11-04T02:26:18.030Z,1.77
2022-11-04T02:29:15.179Z,2.10
2022-11-04T02:31:51.356Z,2.30
2022-11-04T02:34:25.966Z,2.30
2022-11-04T02:37:07.115Z,2.00
2022-11-04T02:39:44.685Z,1.95
2022-11-04T02:42:18.099Z,3.25
2022-11-04T02:44:52.404Z,2.30
2022-11-04T02:47:26.547Z,2.13
2022-11-04T02:49:59.410Z,2.28
2022-11-04T02:52:33.541Z,2.65
2022-11-04T02:55:05.639Z,1.90
2022-11-04T02:57:38.058Z,2.17
2022-11-04T03:00:11.128Z,2.17
2022-11-04T03:02:44.479Z,2.20
2022-11-04T03:05:17.225Z,2.20
2022-11-04T03:07:48.508Z,1.80
2022-11-04T03:10:19.929Z,1.85
2022-11-04T03:12:51.999Z,2.08
2022-11-04T03:15:27.489Z,2.22
2022-11-04T03:18:00.669Z,2.05
2022-11-04T03:20:31.878Z,2.20
2022-11-04T03:23:00.578Z,1.90
2022-11-04T03:25:36.578Z,2.20
2022-11-04T03:28:08.703Z,1.85
2022-11-04T03:30:43.613Z,2.58
2022-11-04T03:33:19.659Z,2.35
2022-11-04T03:35:47.719Z,2.42
2022-11-04T03:38:15.767Z,2.38
2022-11-04T03:40:43.629Z,2.20
2022-11-04T03:43:15.236Z,2.38
2022-11-04T03:45:45.321Z,2.60
2022-11-04T03:48:13.549Z,2.40
2022-11-04T03:50:43.017Z,2.10
2022-11-04T03:53:13.819Z,2.33
2022-11-04T03:56:02.470Z,1.92
2022-11-04T03:58:40.208Z,2.13
2022-11-04T04:01:18.897Z,2.08
2022-11-04T04:03:54.318Z,2.00
2022-11-04T04:06:27.248Z,2.10
2022-11-04T04:08:58.698Z,1.60
2022-11-04T04:11:37.814Z,2.25
2022-11-04T04:14:34.261Z,2.20
2022-11-04T04:17:07.333Z,1.95
2022-11-04T04:19:36.137Z,1.90
2022-11-04T04:22:06.989Z,1.98
2022-11-04T04:24:57.286Z,2.10
2022-11-04T04:27:31.278Z,1.90
2022-11-04T04:30:00.798Z,2.05
2022-11-04T04:32:34.367Z,2.20
2022-11-04T04:35:20.567Z,2.38
2022-11-04T04:37:49.490Z,1.92
2022-11-04T04:40:38.978Z,2.15
2022-11-04T04:43:27.718Z,2.30
2022-11-04T04:45:56.988Z,2.35
2022-11-04T04:48:26.700Z,2.20
2022-11-04T04:50:57.319Z,2.05
2022-11-04T04:53:25.158Z,2.22
2022-11-04T04:55:52.947Z,3.13
2022-11-04T04:58:20.511Z,2.40
2022-11-04T05:00:48.170Z,2.80
2022-11-04T05:03:15.996Z,2.13
2022-11-04T05:05:44.965Z,3.20
2022-11-04T05:08:12.900Z,2.60
2022-11-04T05:10:40.817Z,2.65
2022-11-04T05:13:28.384Z,2.90
2022-11-04T05:15:56.953Z,3.05
2022-11-04T05:18:24.658Z,3.20
2022-11-04T05:20:53.723Z,3.13
2022-11-04T05:23:22.508Z,2.80
2022-11-04T05:25:50.652Z,2.55
2022-11-04T05:28:18.886Z,3.17
2022-11-04T05:30:46.542Z,3.00
2022-11-04T05:33:14.050Z,2.83
2022-11-04T05:35:41.774Z,2.60
2022-11-04T05:38:10.954Z,3.22
2022-11-04T05:40:38.514Z,2.60
2022-11-04T05:43:06.379Z,3.00
2022-11-04T05:45:34.159Z,2.80
2022-11-04T05:48:02.974Z,2.75
2022-11-04T05:50:32.121Z,3.03
2022-11-04T05:53:00.350Z,2.72
2022-11-04T05:55:29.632Z,2.85
2022-11-04T05:57:58.237Z,2.95
2022-11-04T06:00:26.591Z,2.15
2022-11-04T06:02:57.414Z,2.60
2022-11-04T06:05:25.695Z,2.03
2022-11-04T06:07:53.308Z,2.05
2022-11-04T06:10:21.455Z,2.05
2022-11-04T06:12:51.204Z,1.50
2022-11-04T06:15:18.962Z,1.48
2022-11-04T06:17:46.628Z,1.50
2022-11-04T06:20:14.293Z,1.00
2022-11-04T06:22:41.917Z,1.65
2022-11-04T06:27:42.861Z,1.63
2022-11-04T06:30:13.041Z,1.70
2022-11-04T06:32:40.787Z,1.50
2022-11-04T06:35:22.222Z,1.50
2022-11-04T06:37:50.156Z,1.08
2022-11-04T06:40:17.864Z,1.10
2022-11-04T06:42:45.490Z,1.77
2022-11-04T06:45:14.628Z,1.38
2022-11-04T06:47:42.302Z,2.15
2022-11-04T06:50:11.205Z,1.30
2022-11-04T06:52:42.378Z,1.05
2022-11-04T06:55:10.905Z,1.27
2022-11-04T06:57:38.524Z,1.13
2022-11-04T07:00:07.385Z,1.10
2022-11-04T07:02:38.959Z,1.33
2022-11-04T07:05:07.412Z,1.08
2022-11-04T07:07:35.609Z,1.50
2022-11-04T07:10:03.600Z,1.02
2022-11-04T07:12:31.811Z,1.00
2022-11-04T07:14:59.930Z,1.10
2022-11-04T07:17:27.810Z,1.30
2022-11-04T07:19:57.390Z,1.40
2022-11-04T07:22:25.141Z,1.45
2022-11-04T07:24:53.182Z,1.38
2022-11-04T07:27:21.012Z,1.77
2022-11-04T07:29:48.839Z,1.70
2022-11-04T07:32:16.752Z,2.03
2022-11-04T07:34:44.631Z,1.70
2022-11-04T07:37:13.841Z,1.45
2022-11-04T07:39:41.681Z,1.48
2022-11-04T07:42:09.550Z,1.65
2022-11-04T07:44:37.480Z,1.17
2022-11-04T07:47:05.291Z,2.55
2022-11-04T07:49:33.793Z,1.30
2022-11-04T07:52:01.642Z,1.10
2022-11-04T07:54:31.031Z,1.05
2022-11-04T07:56:59.130Z,1.48
2022-11-04T07:59:27.201Z,1.20
2022-11-04T08:01:55.118Z,1.08
2022-11-04T08:04:23.120Z,0.90
2022-11-04T08:06:51.079Z,1.63
2022-11-04T08:11:53.282Z,1.33
2022-11-04T08:14:21.322Z,1.30
2022-11-04T08:16:51.461Z,1.15
2022-11-04T08:19:19.901Z,0.90
2022-11-04T08:21:47.680Z,1.30
2022-11-04T08:24:15.652Z,1.00
2022-11-04T08:26:44.460Z,1.40
2022-11-04T08:29:13.931Z,1.30
2022-11-04T08:31:42.329Z,1.35
2022-11-04T08:34:10.373Z,1.50
2022-11-04T08:36:41.103Z,1.20
2022-11-04T08:39:11.383Z,1.92
2022-11-04T08:41:41.771Z,1.65
2022-11-04T08:44:11.322Z,1.60
2022-11-04T08:46:43.364Z,1.65
2022-11-04T08:49:14.957Z,2.80
2022-11-04T08:51:49.692Z,1.98
2022-11-04T08:54:17.922Z,1.90
2022-11-04T08:56:45.702Z,1.38
2022-11-04T08:59:15.201Z,1.80
2022-11-04T09:01:44.684Z,2.47
2022-11-04T09:04:13.976Z,1.65
2022-11-04T09:06:44.631Z,1.33
2022-11-04T09:09:14.951Z,1.45
2022-11-04T09:11:44.101Z,2.00
2022-11-04T09:14:12.624Z,2.05
2022-11-04T09:16:41.646Z,1.70
2022-11-04T09:19:10.966Z,1.52
2022-11-04T09:21:38.905Z,2.00
2022-11-04T09:24:08.082Z,1.40
2022-11-04T09:26:36.230Z,1.45
2022-11-04T09:29:04.280Z,1.80
2022-11-04T09:31:32.207Z,1.50
2022-11-04T09:34:00.135Z,1.50
2022-11-04T09:36:29.621Z,2.60
2022-11-04T09:38:57.512Z,1.40
2022-11-04T09:42:01.821Z,1.60
2022-11-04T09:45:06.874Z,1.45
2022-11-04T09:47:30.456Z,1.88
2022-11-04T09:50:00.342Z,1.80
2022-11-04T09:52:35.140Z,1.73
2022-11-04T09:55:08.073Z,1.50
2022-11-04T09:57:36.181Z,1.52
2022-11-04T10:00:06.255Z,1.40
2022-11-04T10:02:51.476Z,0.90
2022-11-04T10:05:44.578Z,1.70
2022-11-04T10:08:43.439Z,1.75
2022-11-04T10:11:18.287Z,1.27
2022-11-04T10:14:01.487Z,1.38
2022-11-04T10:16:43.437Z,1.42
2022-11-04T10:19:41.916Z,1.83
2022-11-04T10:22:19.028Z,1.77
2022-11-04T10:24:56.498Z,1.73
2022-11-04T10:27:27.963Z,1.50
2022-11-04T10:32:37.152Z,2.00
2022-11-04T10:35:18.444Z,1.80
2022-11-04T10:37:48.838Z,1.67
2022-11-04T10:40:29.232Z,1.58
2022-11-04T10:43:01.254Z,1.75
2022-11-04T10:45:38.989Z,1.10
2022-11-04T10:48:18.071Z,1.30
2022-11-04T10:50:51.820Z,1.50
2022-11-04T10:53:22.805Z,1.10
2022-11-04T10:58:36.840Z,1.17
2022-11-04T11:01:25.635Z,1.27
2022-11-04T11:03:53.580Z,1.38
2022-11-04T11:06:25.905Z,1.30
2022-11-04T11:08:55.086Z,1.45
2022-11-04T11:11:41.195Z,1.30
2022-11-04T11:14:34.315Z,1.42
2022-11-04T11:17:24.063Z,1.30
2022-11-04T11:19:58.312Z,1.55
2022-11-04T11:22:36.677Z,1.30
2022-11-04T11:25:21.777Z,1.60
2022-11-04T11:27:53.650Z,1.08
2022-11-04T11:30:25.293Z,1.60
2022-11-04T11:32:56.393Z,0.93
2022-11-04T11:35:29.390Z,1.55
2022-11-04T11:38:19.833Z,1.58
2022-11-04T11:41:18.305Z,1.83
2022-11-04T11:43:44.409Z,1.13
2022-11-04T11:46:13.785Z,1.95
2022-11-04T11:48:43.625Z,0.98
2022-11-04T11:51:14.141Z,0.93
2022-11-04T11:53:57.905Z,1.75
2022-11-04T11:56:45.846Z,1.00
2022-11-04T12:02:29.798Z,1.55
2022-11-04T12:10:51.798Z,1.58
2022-11-04T12:13:29.402Z,1.35
2022-11-04T12:16:23.704Z,1.33
2022-11-04T12:19:04.975Z,1.40
2022-11-04T12:21:35.414Z,1.05
2022-11-04T12:24:15.072Z,1.10
2022-11-04T12:26:54.119Z,1.10
2022-11-04T12:29:37.210Z,1.00
2022-11-04T12:32:18.573Z,1.27
2022-11-04T12:34:59.819Z,1.00
2022-11-04T12:37:41.393Z,1.42
2022-11-04T12:40:15.724Z,1.17
2022-11-04T12:43:16.033Z,0.95
2022-11-04T12:45:57.151Z,1.20
2022-11-04T12:48:45.006Z,1.60
2022-11-04T12:51:18.792Z,1.83
2022-11-04T12:54:04.404Z,1.20
2022-11-04T12:56:38.382Z,1.38
2022-11-04T12:59:48.932Z,1.85
2022-11-04T13:02:43.044Z,1.17
2022-11-04T13:05:40.591Z,1.23
2022-11-04T13:08:15.382Z,1.85
2022-11-04T13:10:49.872Z,1.98
2022-11-04T13:13:33.449Z,2.22
2022-11-04T13:16:06.978Z,1.77
2022-11-04T13:18:39.736Z,2.08
2022-11-04T13:21:14.509Z,1.58
2022-11-04T13:23:50.350Z,1.45
2022-11-04T13:26:19.020Z,2.10
2022-11-04T13:28:56.392Z,1.63
2022-11-04T13:31:32.131Z,1.67
2022-11-04T13:34:07.640Z,2.00
2022-11-04T13:36:44.700Z,2.13
2022-11-04T13:39:20.439Z,1.70
2022-11-04T13:42:16.469Z,1.80
2022-11-04T13:44:47.385Z,1.98
2022-11-04T13:47:22.270Z,1.48
2022-11-04T13:49:52.280Z,1.80
2022-11-04T13:52:22.365Z,1.92
2022-11-04T13:54:55.799Z,2.03
2022-11-04T13:57:25.829Z,1.67
2022-11-04T14:00:22.696Z,1.75
2022-11-04T14:02:51.512Z,1.50
2022-11-04T14:08:21.766Z,1.13
2022-11-04T14:11:17.848Z,1.65
2022-11-04T14:14:16.427Z,1.92
2022-11-04T14:16:45.348Z,1.65
2022-11-04T14:19:56.115Z,2.20
2022-11-04T14:22:32.802Z,1.92
2022-11-04T14:27:40.054Z,1.60
2022-11-04T14:30:28.216Z,2.20
2022-11-04T14:32:59.425Z,1.85
2022-11-04T14:35:29.636Z,1.98
2022-11-04T14:38:00.407Z,1.77
2022-11-04T14:40:47.267Z,1.50
2022-11-04T14:43:31.260Z,1.27
2022-11-04T14:46:01.888Z,1.35
2022-11-04T14:48:31.348Z,1.33
2022-11-04T14:50:59.160Z,1.70
2022-11-04T14:53:32.333Z,1.58
2022-11-04T14:56:21.974Z,1.80
2022-11-04T14:58:59.171Z,1.40
2022-11-04T15:01:34.591Z,1.80
2022-11-04T15:04:13.493Z,2.13
2022-11-04T15:06:54.692Z,2.75
2022-11-04T15:09:24.620Z,1.80
2022-11-04T15:12:20.431Z,2.30
2022-11-04T15:14:49.390Z,1.55
2022-11-04T15:17:20.678Z,2.30
2022-11-04T15:19:51.669Z,1.88
2022-11-04T15:22:20.912Z,2.17
2022-11-04T15:24:50.965Z,1.15
2022-11-04T15:27:25.969Z,2.17
2022-11-04T15:29:54.789Z,2.17
2022-11-04T15:32:26.441Z,1.75
2022-11-04T15:34:55.405Z,2.42
2022-11-04T15:37:25.329Z,2.42
2022-11-04T15:39:55.794Z,2.25
2022-11-04T15:42:39.519Z,3.33
2022-11-04T15:45:28.948Z,2.03
2022-11-04T15:48:25.446Z,1.83
2022-11-04T15:51:05.469Z,2.10
2022-11-04T15:53:35.062Z,2.30
2022-11-04T15:56:02.927Z,2.13
2022-11-04T15:58:32.126Z,1.83
2022-11-04T16:00:59.819Z,1.60
2022-11-04T16:03:27.744Z,1.95
2022-11-04T16:06:04.077Z,1.25
2022-11-04T16:08:33.016Z,2.25
2022-11-04T16:11:13.385Z,1.98
2022-11-04T16:13:43.663Z,2.08
2022-11-04T16:16:23.939Z,1.60
2022-11-04T16:18:54.224Z,2.35
2022-11-04T16:21:28.158Z,1.60
2022-11-04T16:24:00.932Z,1.65
2022-11-04T16:26:31.236Z,1.30
2022-11-04T16:29:02.177Z,1.40
2022-11-04T16:34:11.600Z,1.38
2022-11-04T16:36:39.631Z,1.38
2022-11-04T16:39:08.972Z,1.85
2022-11-04T16:41:37.901Z,1.20
2022-11-04T16:44:15.724Z,1.40
2022-11-04T16:46:45.516Z,1.52
2022-11-04T16:49:15.929Z,1.65
2022-11-04T16:51:43.647Z,1.50
2022-11-04T16:54:11.332Z,2.05
2022-11-04T16:56:40.555Z,2.10
2022-11-04T16:59:11.766Z,1.83
2022-11-04T17:01:40.297Z,1.25
2022-11-04T17:04:08.158Z,2.28
2022-11-04T17:06:36.240Z,2.05
2022-11-04T17:09:04.421Z,1.52
2022-11-04T17:11:32.206Z,2.30
2022-11-04T17:13:59.957Z,1.65
2022-11-04T17:16:30.425Z,1.58
2022-11-04T17:18:58.630Z,1.50
2022-11-04T17:21:26.524Z,1.70
2022-11-04T17:23:56.386Z,1.60
2022-11-04T17:26:24.130Z,1.52
2022-11-04T17:31:24.552Z,1.85
2022-11-04T17:33:53.763Z,2.45
2022-11-04T17:36:22.212Z,2.53
2022-11-04T17:38:50.016Z,2.65
2022-11-04T17:41:36.190Z,1.90
2022-11-04T17:44:05.304Z,1.83
2022-11-04T17:46:34.451Z,1.77
2022-11-04T17:49:10.343Z,1.70
2022-11-04T17:51:39.698Z,2.20
2022-11-04T17:54:08.145Z,1.60
2022-11-04T17:56:36.047Z,1.67
2022-11-04T17:59:04.540Z,1.08
2022-11-04T18:01:33.729Z,1.85
2022-11-04T18:04:03.439Z,1.50
2022-11-04T18:06:32.201Z,1.80
2022-11-04T18:09:00.326Z,1.70
2022-11-04T18:11:48.551Z,2.15
2022-11-04T18:14:17.695Z,2.53
2022-11-04T18:16:47.361Z,2.10
2022-11-04T18:19:17.655Z,2.40
2022-11-04T18:21:45.874Z,2.13
2022-11-04T18:24:14.096Z,2.17
2022-11-04T18:27:06.304Z,2.13
2022-11-04T18:29:34.248Z,3.13
2022-11-04T18:32:02.585Z,2.47
2022-11-04T18:34:32.259Z,2.47
2022-11-04T18:37:00.975Z,2.25
2022-11-04T18:39:28.642Z,2.88
2022-11-04T18:41:56.537Z,2.08
2022-11-04T18:44:24.490Z,2.22
2022-11-04T18:49:24.850Z,2.00
2022-11-04T18:51:54.071Z,1.95
2022-11-04T18:54:21.961Z,5.35
2022-11-04T18:56:49.812Z,2.35
2022-11-04T18:59:17.935Z,2.55
2022-11-04T19:01:46.054Z,2.42
2022-11-04T19:04:14.602Z,2.33
2022-11-04T19:06:44.815Z,2.45
2022-11-04T19:09:45.509Z,1.92
2022-11-04T19:12:23.043Z,2.35
2022-11-04T19:14:51.302Z,2.45
2022-11-04T19:17:19.451Z,2.22
2022-11-04T19:19:47.653Z,2.55
2022-11-04T19:22:15.604Z,2.90
2022-11-04T19:24:46.244Z,3.40
2022-11-04T19:27:14.724Z,4.43
2022-11-04T19:29:42.671Z,3.00
2022-11-04T19:32:14.237Z,3.45
2022-11-04T19:34:42.742Z,2.78
2022-11-04T19:37:11.233Z,3.08
2022-11-04T19:39:45.623Z,2.92
2022-11-04T19:42:32.472Z,2.85
2022-11-04T19:45:00.562Z,2.85
2022-11-04T19:47:28.621Z,3.00
2022-11-04T19:49:56.993Z,3.35
2022-11-04T19:52:44.448Z,2.70
2022-11-04T19:55:14.248Z,2.95
2022-11-04T19:57:42.738Z,6.18
2022-11-04T20:00:12.339Z,3.53
2022-11-04T20:02:40.634Z,2.88
2022-11-04T20:05:09.211Z,3.60
2022-11-04T20:07:39.644Z,2.63
2022-11-04T20:10:08.621Z,3.00
2022-11-04T20:12:59.805Z,2.20
2022-11-04T20:15:28.882Z,2.00
2022-11-04T20:17:56.826Z,3.60
2022-11-04T20:20:24.880Z,2.25
2022-11-04T20:22:52.850Z,3.22
2022-11-04T20:25:33.094Z,3.13
2022-11-04T20:28:03.730Z,3.50
2022-11-04T20:30:31.900Z,3.70
2022-11-04T20:32:59.842Z,3.65
2022-11-04T20:35:27.819Z,3.97
2022-11-04T20:37:55.960Z,4.22
2022-11-04T20:40:24.186Z,4.38
2022-11-04T20:42:52.198Z,4.53
2022-11-04T20:45:21.839Z,4.57
2022-11-04T20:47:50.135Z,4.88
2022-11-04T20:50:18.250Z,4.45
2022-11-04T20:52:46.732Z,4.35
2022-11-04T20:55:14.809Z,4.80
2022-11-04T20:57:43.092Z,5.10
2022-11-04T21:00:13.236Z,4.35
2022-11-04T21:02:43.625Z,8.70
2022-11-04T21:05:11.776Z,4.72
2022-11-04T21:07:40.470Z,4.43
2022-11-04T21:10:09.110Z,5.63
2022-11-04T21:12:37.143Z,3.67
2022-11-04T21:15:26.056Z,3.50
2022-11-04T21:17:55.824Z,3.17
2022-11-04T21:20:23.953Z,3.33
2022-11-04T21:22:51.943Z,11.30
2022-11-04T21:25:20.234Z,5.82
2022-11-04T21:27:48.202Z,3.60
2022-11-04T21:30:16.544Z,3.25
2022-11-04T21:33:00.636Z,3.22
2022-11-04T21:35:28.793Z,2.70
2022-11-04T21:37:57.284Z,2.75
2022-11-04T21:40:25.374Z,3.50
2022-11-04T21:42:53.283Z,3.03
2022-11-04T21:45:21.482Z,2.80
2022-11-04T21:47:49.331Z,3.80
2022-11-04T21:50:19.202Z,4.25
2022-11-04T21:52:47.180Z,4.05
2022-11-04T21:55:15.042Z,4.18
2022-11-04T21:57:43.091Z,3.25
2022-11-04T22:00:12.561Z,3.38
2022-11-04T22:02:44.689Z,3.20
2022-11-04T22:05:13.431Z,3.30
2022-11-04T22:08:01.462Z,2.75
2022-11-04T22:10:30.259Z,3.00
2022-11-04T22:12:58.277Z,3.38
2022-11-04T22:15:44.956Z,3.13
2022-11-04T22:18:15.556Z,2.80
2022-11-04T22:20:43.826Z,3.33
2022-11-04T22:23:13.572Z,2.80
2022-11-04T22:25:45.935Z,2.60
2022-11-04T22:28:31.085Z,3.20
2022-11-04T22:31:05.848Z,2.90
2022-11-04T22:33:33.916Z,3.00
2022-11-04T22:36:02.196Z,3.50
2022-11-04T22:38:31.918Z,3.40
2022-11-04T22:41:01.386Z,3.55
2022-11-04T22:43:29.906Z,4.32
2022-11-04T22:45:58.605Z,3.88
2022-11-04T22:48:26.614Z,3.47
2022-11-04T22:50:57.657Z,3.35
2022-11-04T22:53:26.426Z,3.30
2022-11-04T22:55:58.766Z,3.50
2022-11-04T22:58:26.917Z,4.28
2022-11-04T23:00:56.118Z,4.05
2022-11-04T23:03:24.748Z,3.03
2022-11-04T23:05:56.751Z,3.65
2022-11-04T23:08:25.609Z,3.15
2022-11-04T23:11:17.288Z,3.17
2022-11-04T23:14:08.988Z,3.00
2022-11-04T23:16:55.690Z,3.38
2022-11-04T23:19:28.289Z,2.65
2022-11-04T23:22:19.360Z,2.33
2022-11-04T23:25:05.743Z,2.17
2022-11-04T23:27:54.097Z,2.50
2022-11-04T23:30:22.073Z,2.03
2022-11-04T23:32:50.186Z,2.30
2022-11-04T23:35:36.980Z,2.55
2022-11-04T23:38:05.189Z,2.47
2022-11-04T23:40:33.368Z,2.95
2022-11-04T23:43:02.706Z,2.72
2022-11-04T23:45:48.926Z,2.47
2022-11-04T23:48:35.285Z,2.35
2022-11-04T23:51:21.868Z,2.30
2022-11-04T23:54:22.614Z,2.63
2022-11-04T23:57:09.038Z,2.78
2022-11-04T23:59:56.837Z,2.60
